Time;durP1;ratioP1;P1;durP2;ratioP2;P2;SDS_P1;SDS_P2;PMS_P1;PMS_P2;Temp;Humidity;BMP_temperature;BMP_pressure;BME280_temperature;BME280_humidity;BME280_pressure;Samples;Min_cycle;Max_cycle;Signal;HPM_P1;HPM_P2
2021/03/30 00:01:59;;;;;;;9.00;3.70;;;;;;;9.87;48.48;102284.98;113193;1209;64582;-81
2021/03/30 00:04:25;;;;;;;8.00;3.37;;;;;;;9.86;48.47;102293.89;113177;1209;64333;-79
2021/03/30 00:06:52;;;;;;;6.00;2.70;;;;;;;9.84;48.43;102290.53;113072;1209;64356;-79
2021/03/30 00:09:18;;;;;;;7.70;3.10;;;;;;;9.83;48.90;102288.87;113153;1209;64423;-80
2021/03/30 00:11:45;;;;;;;7.30;2.90;;;;;;;9.77;48.55;102296.35;113178;1209;64375;-79
2021/03/30 00:14:11;;;;;;;8.60;2.73;;;;;;;9.74;48.73;102296.63;113094;1209;64409;-81
2021/03/30 00:16:38;;;;;;;5.80;2.77;;;;;;;9.74;48.78;102296.63;113091;1209;65588;-79
2021/03/30 00:19:05;;;;;;;10.90;3.75;;;;;;;9.70;49.15;102295.20;113127;1209;64420;-80
2021/03/30 00:21:31;;;;;;;8.97;3.83;;;;;;;9.67;49.12;102299.91;113226;1209;64407;-81
2021/03/30 00:23:58;;;;;;;6.80;3.65;;;;;;;9.63;48.40;102296.70;113317;1209;64388;-81
2021/03/30 00:26:24;;;;;;;5.00;2.83;;;;;;;9.62;48.98;102307.42;113173;1209;64488;-81
2021/03/30 00:28:51;;;;;;;6.20;2.70;;;;;;;9.56;48.67;102308.77;113104;1209;64442;-80
2021/03/30 00:31:17;;;;;;;6.93;3.27;;;;;;;9.50;48.40;102303.98;113216;1209;65145;-78
2021/03/30 00:33:44;;;;;;;6.63;2.45;;;;;;;9.47;48.98;102305.08;113173;1209;65315;-81
2021/03/30 00:36:11;;;;;;;4.87;3.20;;;;;;;9.44;48.77;102304.52;113179;1209;64304;-80
2021/03/30 00:38:37;;;;;;;5.70;2.95;;;;;;;9.42;48.59;102301.16;113038;1209;64496;-81
2021/03/30 00:41:05;;;;;;;5.87;2.60;;;;;;;9.36;49.12;102305.97;113156;1209;64371;-80
2021/03/30 00:43:32;;;;;;;5.80;3.10;;;;;;;9.32;49.20;102304.55;113148;1209;64416;-79
2021/03/30 00:45:58;;;;;;;5.80;3.00;;;;;;;9.28;49.37;102305.77;113132;1209;64314;-81
2021/03/30 00:48:28;;;;;;;5.37;3.50;;;;;;;9.22;49.57;102306.27;113082;1209;64524;-80
2021/03/30 00:50:56;;;;;;;5.63;3.23;;;;;;;9.18;49.51;102310.16;113122;1209;64387;-79
2021/03/30 00:53:23;;;;;;;8.00;3.90;;;;;;;9.12;50.38;102305.38;113144;1209;64423;-79
2021/03/30 00:55:50;;;;;;;6.43;3.33;;;;;;;9.10;50.22;102297.55;113189;1209;64439;-79
2021/03/30 00:58:16;;;;;;;9.27;3.83;;;;;;;9.10;50.15;102296.71;113203;1209;64390;-77
2021/03/30 01:00:43;;;;;;;5.87;3.83;;;;;;;9.12;50.35;102300.08;113240;1209;64422;-79
2021/03/30 01:03:10;;;;;;;7.70;3.70;;;;;;;9.12;50.44;102300.08;113107;1209;64522;-79
2021/03/30 01:05:36;;;;;;;6.70;4.00;;;;;;;9.14;50.02;102301.63;113137;1209;65572;-80
2021/03/30 01:08:18;;;;;;;5.30;2.83;;;;;;;9.17;50.46;102304.00;113304;1209;64266;-79
2021/03/30 01:10:56;;;;;;;7.17;3.23;;;;;;;9.19;50.45;102301.24;113242;1209;64361;-79
2021/03/30 01:13:34;;;;;;;7.77;4.13;;;;;;;9.23;50.52;102301.84;113141;1209;64477;-78
2021/03/30 01:16:09;;;;;;;6.30;3.90;;;;;;;9.26;50.31;102310.34;113100;1209;65560;-77
2021/03/30 01:18:50;;;;;;;10.25;3.80;;;;;;;9.26;50.17;102299.75;113269;1209;64336;-78
2021/03/30 01:21:28;;;;;;;8.30;4.13;;;;;;;9.25;50.01;102311.33;113236;1209;64387;-80
2021/03/30 01:24:16;;;;;;;6.93;4.40;;;;;;;9.22;49.84;102308.08;113235;1209;64378;-79
2021/03/30 01:27:25;;;;;;;11.17;4.43;;;;;;;9.16;49.94;102307.64;113238;1209;64317;-79
2021/03/30 01:29:53;;;;;;;7.73;4.13;;;;;;;9.07;50.19;102304.89;113077;1209;64384;-79
2021/03/30 01:32:39;;;;;;;9.40;4.13;;;;;;;9.02;50.21;102304.44;113331;1209;64496;-79
2021/03/30 01:35:11;;;;;;;6.47;3.30;;;;;;;8.96;50.48;102296.01;113207;1209;64362;-79
2021/03/30 01:37:44;;;;;;;6.37;3.87;;;;;;;8.92;50.88;102296.39;113248;1209;64339;-79
2021/03/30 01:40:15;;;;;;;7.40;3.43;;;;;;;8.89;50.25;102294.00;113222;1209;64368;-79
2021/03/30 01:42:45;;;;;;;7.03;3.97;;;;;;;8.86;50.58;102300.39;113211;1209;64413;-78
2021/03/30 01:45:15;;;;;;;7.63;3.87;;;;;;;8.84;50.66;102296.16;113185;1209;65172;-80
2021/03/30 01:47:43;;;;;;;7.23;4.17;;;;;;;8.81;50.50;102286.67;113191;1209;64407;-80
2021/03/30 01:50:11;;;;;;;8.35;3.95;;;;;;;8.80;50.92;102290.30;113296;1209;64506;-79
2021/03/30 01:52:39;;;;;;;8.45;4.45;;;;;;;8.79;50.65;102283.31;113204;1209;64371;-79
2021/03/30 01:55:12;;;;;;;10.20;3.97;;;;;;;8.77;51.00;102285.23;113262;1209;64544;-79
2021/03/30 01:57:40;;;;;;;9.57;4.00;;;;;;;8.80;50.64;102279.72;113129;1209;64448;-79
2021/03/30 02:00:08;;;;;;;10.30;4.55;;;;;;;8.84;50.48;102280.29;113312;1209;64359;-80
2021/03/30 02:02:36;;;;;;;7.90;3.95;;;;;;;8.86;50.47;102279.23;113235;1209;64410;-80
2021/03/30 02:05:07;;;;;;;8.57;4.17;;;;;;;8.89;50.47;102278.13;113317;1209;64377;-80
2021/03/30 02:07:34;;;;;;;9.95;4.25;;;;;;;8.91;50.28;102282.32;113198;1209;64518;-79
2021/03/30 02:10:07;;;;;;;6.93;3.83;;;;;;;8.92;49.78;102277.86;113225;1209;64384;-79
2021/03/30 02:12:41;;;;;;;8.17;4.20;;;;;;;8.95;50.43;102282.92;113343;1209;64367;-79
2021/03/30 02:15:17;;;;;;;8.78;4.05;;;;;;;8.96;50.36;102280.13;113243;1209;64389;-79
2021/03/30 02:18:07;;;;;;;6.97;4.10;;;;;;;8.97;50.46;102284.47;113166;1209;64352;-79
2021/03/30 02:20:37;;;;;;;5.40;3.53;;;;;;;8.92;50.22;102276.05;113192;1209;64496;-80
2021/03/30 02:23:23;;;;;;;6.37;3.87;;;;;;;8.89;50.31;102276.31;113579;1209;64364;-78
2021/03/30 02:25:53;;;;;;;6.30;4.08;;;;;;;8.85;50.01;102277.53;113357;1209;64340;-79
2021/03/30 02:28:25;;;;;;;7.00;4.00;;;;;;;8.85;50.45;102271.40;113198;1209;64247;-80
2021/03/30 02:30:53;;;;;;;8.40;3.70;;;;;;;8.83;50.52;102275.98;113168;1209;64390;-79
2021/03/30 02:33:22;;;;;;;9.40;4.80;;;;;;;8.80;50.72;102274.42;113170;1209;64317;-80
2021/03/30 02:35:53;;;;;;;6.30;4.00;;;;;;;8.80;50.67;102273.56;113247;1209;64362;-80
2021/03/30 02:38:24;;;;;;;9.40;4.40;;;;;;;8.76;50.53;102270.34;113154;1209;64422;-80
2021/03/30 02:40:53;;;;;;;7.95;4.80;;;;;;;8.72;50.74;102267.09;113309;1209;65645;-79
2021/03/30 02:43:21;;;;;;;6.63;4.23;;;;;;;8.72;51.17;102271.55;113209;1209;64358;-79
2021/03/30 02:45:51;;;;;;;7.55;4.00;;;;;;;8.69;51.06;102263.84;113426;1209;64384;-78
2021/03/30 02:48:19;;;;;;;8.50;3.80;;;;;;;8.64;51.15;102268.69;114465;1209;64963;-78
2021/03/30 02:50:49;;;;;;;5.45;3.30;;;;;;;8.59;50.87;102265.58;113241;1209;64438;-78
2021/03/30 02:53:15;;;;;;;9.57;4.00;;;;;;;8.55;51.10;102273.74;115957;1209;62205;-79
2021/03/30 02:55:44;;;;;;;8.07;4.03;;;;;;;8.54;51.28;102264.14;113196;1209;64422;-78
2021/03/30 02:58:11;;;;;;;10.73;4.93;;;;;;;8.53;51.29;102265.09;113181;1209;64486;-81
2021/03/30 03:00:39;;;;;;;10.33;4.40;;;;;;;8.50;51.67;102273.28;113323;1209;64388;-79
2021/03/30 03:03:10;;;;;;;9.60;4.13;;;;;;;8.49;51.42;102271.59;113275;1209;64428;-79
2021/03/30 03:05:38;;;;;;;7.00;3.43;;;;;;;8.46;51.62;102270.98;113038;1209;64342;-80
2021/03/30 03:08:07;;;;;;;7.45;4.20;;;;;;;8.41;51.59;102274.00;113197;1209;64387;-79
2021/03/30 03:10:38;;;;;;;8.47;4.87;;;;;;;8.35;51.56;102275.31;113080;1209;64900;-79
2021/03/30 03:13:09;;;;;;;10.97;4.27;;;;;;;8.33;52.04;102273.73;113201;1209;64393;-79
2021/03/30 03:15:36;;;;;;;7.63;4.07;;;;;;;8.28;51.72;102279.38;113284;1209;64387;-78
2021/03/30 03:18:04;;;;;;;7.27;4.37;;;;;;;8.24;52.08;102277.11;113073;1209;64336;-78
2021/03/30 03:20:31;;;;;;;9.17;4.07;;;;;;;8.19;52.59;102280.12;113224;1209;64531;-79
2021/03/30 03:22:59;;;;;;;12.20;4.07;;;;;;;8.17;52.15;102282.04;113059;1209;64423;-79
2021/03/30 03:25:26;;;;;;;9.55;4.55;;;;;;;8.12;52.23;102281.57;113242;1209;64509;-79
2021/03/30 03:27:53;;;;;;;7.77;3.90;;;;;;;8.05;52.61;102281.18;113154;1209;64413;-79
2021/03/30 03:30:25;;;;;;;7.70;3.43;;;;;;;8.00;52.70;102285.99;113121;1209;64384;-79
2021/03/30 03:32:52;;;;;;;8.07;3.87;;;;;;;7.94;52.81;102286.47;113205;1209;64317;-78
2021/03/30 03:35:19;;;;;;;9.70;5.00;;;;;;;7.87;53.03;102280.81;113133;1209;64396;-80
2021/03/30 03:37:47;;;;;;;7.93;4.13;;;;;;;7.82;53.39;102284.77;113358;1209;64381;-78
2021/03/30 03:40:17;;;;;;;10.70;5.50;;;;;;;7.80;53.98;102284.03;113089;1209;65348;-79
2021/03/30 03:42:43;;;;;;;8.55;5.00;;;;;;;7.80;53.83;102284.03;113152;1209;65709;-79
2021/03/30 03:45:11;;;;;;;8.57;4.07;;;;;;;7.79;54.25;102285.02;113112;1209;64399;-81
2021/03/30 03:47:37;;;;;;;7.80;4.15;;;;;;;7.76;54.21;102281.64;113180;1209;64544;-79
2021/03/30 03:50:04;;;;;;;8.00;3.93;;;;;;;7.73;53.78;102284.50;113231;1209;64381;-78
2021/03/30 03:52:41;;;;;;;9.23;5.00;;;;;;;7.68;53.98;102289.31;113206;1209;64349;-78
2021/03/30 03:55:14;;;;;;;9.35;4.30;;;;;;;7.64;54.77;102287.85;113541;1209;64442;-80
2021/03/30 03:57:48;;;;;;;7.00;4.13;;;;;;;7.57;54.54;102289.29;113151;1209;64699;-78
2021/03/30 04:00:15;;;;;;;11.10;4.57;;;;;;;7.53;54.65;102286.03;113267;1209;64384;-78
2021/03/30 04:02:55;;;;;;;7.85;4.75;;;;;;;7.54;54.74;102289.50;113279;1209;64412;-78
2021/03/30 04:05:26;;;;;;;7.33;3.97;;;;;;;7.52;54.83;102288.78;113386;1209;64386;-79
2021/03/30 04:08:03;;;;;;;8.20;4.50;;;;;;;7.51;55.04;102287.94;113181;1209;64472;-79
2021/03/30 04:10:32;;;;;;;9.55;4.90;;;;;;;7.54;54.81;102290.37;113244;1209;64342;-79
2021/03/30 04:13:01;;;;;;;15.05;6.25;;;;;;;7.60;55.43;102289.05;113444;1209;64554;-79
2021/03/30 04:15:28;;;;;;;9.97;4.37;;;;;;;7.62;54.87;102287.13;113179;1209;64332;-80
2021/03/30 04:17:54;;;;;;;10.70;4.80;;;;;;;7.64;54.98;102290.50;113210;1209;64355;-79
2021/03/30 04:20:25;;;;;;;8.73;4.20;;;;;;;7.64;54.75;102295.78;113217;1209;64400;-79
2021/03/30 04:22:56;;;;;;;7.57;4.27;;;;;;;7.68;54.84;102296.39;113100;1209;65512;-79
2021/03/30 04:25:23;;;;;;;6.90;4.30;;;;;;;7.70;54.91;102294.48;113153;1209;65661;-79
2021/03/30 04:27:50;;;;;;;8.25;4.15;;;;;;;7.69;54.60;102301.57;112956;1209;64694;-78
2021/03/30 04:30:17;;;;;;;9.50;4.47;;;;;;;7.68;55.05;102305.16;113363;1209;64310;-78
2021/03/30 04:32:44;;;;;;;7.70;4.30;;;;;;;7.68;54.59;102307.80;113172;1209;64371;-79
2021/03/30 04:35:11;;;;;;;8.00;4.20;;;;;;;7.66;54.71;102306.23;113116;1209;64396;-80
2021/03/30 04:37:38;;;;;;;6.80;3.63;;;;;;;7.63;54.53;102304.67;113132;1209;64476;-79
2021/03/30 04:40:07;;;;;;;9.43;5.50;;;;;;;7.60;54.97;102312.81;113286;1209;64423;-80
2021/03/30 04:42:34;;;;;;;10.40;4.90;;;;;;;7.63;55.47;102309.95;113281;1209;64413;-78
2021/03/30 04:45:01;;;;;;;8.13;4.73;;;;;;;7.69;55.21;102308.63;113162;1209;64358;-81
2021/03/30 04:47:27;;;;;;;7.33;4.87;;;;;;;7.74;54.98;102309.98;113560;1209;64358;-80
2021/03/30 04:49:53;;;;;;;9.80;5.35;;;;;;;7.83;54.66;102316.36;113509;1209;64457;-78
2021/03/30 04:52:20;;;;;;;9.57;5.20;;;;;;;7.90;54.53;102314.08;112997;1209;66535;-80
2021/03/30 04:54:46;;;;;;;11.47;4.03;;;;;;;7.94;54.32;102312.89;113080;1209;65315;-78
2021/03/30 04:57:13;;;;;;;11.05;5.25;;;;;;;8.01;54.37;102319.41;113120;1209;65511;-79
2021/03/30 04:59:40;;;;;;;10.10;5.48;;;;;;;8.04;53.97;102324.44;113177;1209;64381;-78
2021/03/30 05:02:06;;;;;;;10.27;4.77;;;;;;;8.11;53.79;102328.28;113215;1209;64547;-79
2021/03/30 05:04:33;;;;;;;13.30;5.70;;;;;;;8.19;53.14;102338.27;113226;1209;64873;-79
2021/03/30 05:07:00;;;;;;;12.57;4.87;;;;;;;8.25;53.13;102334.33;113274;1209;64406;-81
2021/03/30 05:09:26;;;;;;;8.83;4.93;;;;;;;8.33;53.03;102339.83;113252;1209;64407;-79
2021/03/30 05:11:53;;;;;;;8.37;4.30;;;;;;;8.38;52.70;102342.98;113222;1209;64464;-80
2021/03/30 05:14:19;;;;;;;9.17;4.90;;;;;;;8.44;52.55;102333.77;113109;1209;64643;-77
2021/03/30 05:16:46;;;;;;;8.13;4.83;;;;;;;8.48;51.98;102338.69;113275;1209;64412;-79
2021/03/30 05:19:13;;;;;;;7.23;3.77;;;;;;;8.48;52.58;102343.97;113153;1209;64473;-79
2021/03/30 05:21:39;;;;;;;9.30;4.13;;;;;;;8.46;52.26;102345.89;113193;1209;64476;-80
2021/03/30 05:24:07;;;;;;;10.97;5.13;;;;;;;8.45;52.33;102343.36;113143;1209;64384;-78
2021/03/30 05:26:33;;;;;;;8.60;4.47;;;;;;;8.44;52.27;102358.39;113153;1209;64388;-78
2021/03/30 05:29:00;;;;;;;10.20;5.20;;;;;;;8.44;53.12;102358.39;113177;1209;66226;-78
2021/03/30 05:31:26;;;;;;;9.37;5.87;;;;;;;8.43;52.26;102351.41;113051;1209;65027;-77
2021/03/30 05:33:53;;;;;;;11.33;6.07;;;;;;;8.45;52.88;102352.13;113030;1209;65632;-79
2021/03/30 05:36:19;;;;;;;17.18;6.33;;;;;;;8.49;52.51;102358.86;113171;1209;64451;-79
2021/03/30 05:38:46;;;;;;;7.70;4.20;;;;;;;8.55;52.42;102355.74;113122;1209;65559;-79
2021/03/30 05:41:12;;;;;;;11.03;5.10;;;;;;;8.62;52.96;102355.26;113285;1209;64387;-81
2021/03/30 05:43:40;;;;;;;11.93;4.60;;;;;;;8.69;52.31;102365.25;113599;1209;64848;-78
2021/03/30 05:46:07;;;;;;;12.93;5.60;;;;;;;8.80;51.85;102364.39;113135;1207;64851;-79
2021/03/30 05:48:34;;;;;;;9.25;5.10;;;;;;;8.91;52.07;102372.31;113278;1209;64381;-80
2021/03/30 05:51:00;;;;;;;9.73;5.20;;;;;;;9.02;51.90;102367.96;113282;1209;64458;-81
2021/03/30 05:53:27;;;;;;;11.30;5.00;;;;;;;9.13;51.59;102367.93;113175;1209;64362;-79
2021/03/30 05:56:00;;;;;;;11.10;5.10;;;;;;;9.26;51.14;102371.25;112830;1209;64856;-80
2021/03/30 05:58:32;;;;;;;11.90;6.30;;;;;;;9.37;51.00;102383.62;113108;1209;64422;-79
2021/03/30 06:01:05;;;;;;;13.07;5.37;;;;;;;9.47;50.97;102373.12;113077;1209;64400;-78
2021/03/30 06:03:34;;;;;;;10.77;6.27;;;;;;;9.59;50.68;102382.71;113137;1209;65681;-79
2021/03/30 06:06:02;;;;;;;13.40;6.37;;;;;;;9.67;50.24;102385.57;113099;1209;65566;-78
2021/03/30 06:08:31;;;;;;;15.45;7.10;;;;;;;9.78;50.31;102382.86;113116;1209;64358;-79
2021/03/30 06:11:03;;;;;;;9.73;5.53;;;;;;;9.89;49.76;102389.08;113308;1209;64799;-79
2021/03/30 06:13:55;;;;;;;10.80;5.97;;;;;;;9.99;49.94;102395.30;113226;1209;64380;-78
2021/03/30 06:16:29;;;;;;;11.67;6.10;;;;;;;10.11;49.85;102388.92;113168;1209;64541;-78
2021/03/30 06:19:03;;;;;;;;;;;;;;;10.23;49.14;102395.01;113095;1217;64390;-78
2021/03/30 06:21:30;;;;;;;11.77;5.57;;;;;;;10.32;48.13;102396.06;113153;1209;64371;-80
2021/03/30 06:23:59;;;;;;;15.33;6.33;;;;;;;10.42;48.20;102402.27;113096;1209;64374;-79
2021/03/30 06:26:26;;;;;;;10.40;5.87;;;;;;;10.51;48.48;102395.33;113155;1209;64413;-77
2021/03/30 06:28:54;;;;;;;11.83;5.67;;;;;;;10.60;47.67;102405.13;113100;1209;64483;-77
2021/03/30 06:31:21;;;;;;;13.70;5.40;;;;;;;10.69;47.80;102401.70;113081;1209;65343;-78
2021/03/30 06:33:55;;;;;;;14.70;6.23;;;;;;;10.78;47.70;102397.39;113327;1209;64477;-78
2021/03/30 06:36:23;;;;;;;;;;;;;;;10.89;47.83;102389.32;113338;1216;64301;-79
2021/03/30 06:39:02;;;;;;;15.70;6.97;;;;;;;10.99;47.38;102390.19;113174;1209;64404;-78
2021/03/30 06:41:42;;;;;;;11.80;6.10;;;;;;;11.14;46.98;102398.61;113163;1209;64389;-79
2021/03/30 06:47:10;;;;;;;9.33;4.93;;;;;;;11.45;46.48;102397.66;113390;1209;64381;-81
2021/03/30 06:49:38;;;;;;;8.80;4.13;;;;;;;11.59;46.52;102398.09;113481;1209;64403;-78
2021/03/30 06:52:17;;;;;;;8.93;5.30;;;;;;;11.72;45.95;102408.44;113228;1209;64420;-78
2021/03/30 06:55:01;;;;;;;14.90;6.53;;;;;;;11.86;45.67;102399.22;113296;1209;64695;-78
2021/03/30 06:57:49;;;;;;;14.73;7.30;;;;;;;12.00;45.41;102397.95;112970;1209;64493;-77
2021/03/30 07:00:27;;;;;;;14.37;6.07;;;;;;;12.14;45.48;102405.50;113042;1209;64388;-79
2021/03/30 07:03:03;;;;;;;12.90;6.67;;;;;;;12.28;45.09;102406.02;113138;1209;64371;-77
2021/03/30 07:05:39;;;;;;;11.77;6.50;;;;;;;12.40;45.13;102410.19;112998;1209;64400;-76
2021/03/30 07:08:10;;;;;;;12.87;6.87;;;;;;;12.53;44.91;102413.36;113128;1209;64528;-77
2021/03/30 07:10:40;;;;;;;14.57;7.17;;;;;;;12.63;44.33;102411.51;113074;1209;65465;-78
2021/03/30 07:13:08;;;;;;;12.40;6.90;;;;;;;12.74;44.49;102413.14;113112;1209;64391;-76
2021/03/30 07:15:38;;;;;;;12.50;7.40;;;;;;;12.84;44.52;102415.77;113232;1209;64256;-77
2021/03/30 07:18:24;;;;;;;13.43;7.13;;;;;;;12.95;44.04;102414.73;113166;1209;64461;-78
2021/03/30 07:21:04;;;;;;;18.50;9.13;;;;;;;13.03;43.74;102414.83;112969;1207;64493;-78
2021/03/30 07:23:32;;;;;;;12.77;5.77;;;;;;;13.14;43.72;102424.45;113002;1209;64384;-78
2021/03/30 07:26:10;;;;;;;16.10;7.80;;;;;;;13.23;43.37;102420.88;113043;1209;64387;-79
2021/03/30 07:28:44;;;;;;;15.80;6.50;;;;;;;13.34;43.83;102415.34;113050;1209;64394;-75
2021/03/30 07:31:23;;;;;;;;;;;;;;;13.45;43.58;102420.48;112973;1217;64393;-74
2021/03/30 07:34:14;;;;;;;11.67;7.07;;;;;;;13.53;43.18;102416.20;112906;1209;64416;-75
2021/03/30 07:36:48;;;;;;;12.40;6.47;;;;;;;13.62;43.16;102420.61;112982;1209;64393;-75
2021/03/30 07:39:20;;;;;;;13.37;6.10;;;;;;;13.69;43.03;102416.36;112983;1209;64388;-75
2021/03/30 07:41:48;;;;;;;20.10;8.00;;;;;;;13.77;42.46;102419.11;113487;1209;65506;-75
2021/03/30 07:44:19;;;;;;;15.93;7.40;;;;;;;13.89;43.06;102422.36;113056;1209;64560;-73
2021/03/30 07:46:46;;;;;;;14.70;7.15;;;;;;;14.01;42.46;102425.63;112969;1209;65707;-74
2021/03/30 07:49:14;;;;;;;18.13;6.50;;;;;;;14.11;42.38;102418.38;112914;1209;65041;-75
2021/03/30 07:51:43;;;;;;;14.00;7.10;;;;;;;14.19;41.96;102422.91;112997;1209;64451;-76
2021/03/30 07:54:15;;;;;;;12.63;6.70;;;;;;;14.26;42.28;102424.81;113134;1209;64384;-77
2021/03/30 07:56:41;;;;;;;14.53;7.50;;;;;;;14.36;41.52;102426.52;113029;1209;65593;-78
2021/03/30 07:59:09;;;;;;;14.97;7.43;;;;;;;14.41;41.68;102424.23;113175;1209;64570;-79
2021/03/30 08:01:36;;;;;;;14.93;7.17;;;;;;;14.48;41.62;102425.27;113178;1209;64396;-77
2021/03/30 08:04:04;;;;;;;15.03;7.10;;;;;;;14.56;41.73;102420.01;113055;1209;64416;-78
2021/03/30 08:06:50;;;;;;;19.13;8.13;;;;;;;14.63;41.49;102429.05;113225;1209;64349;-78
2021/03/30 08:09:19;;;;;;;13.77;5.93;;;;;;;14.70;41.34;102431.91;113040;1209;64371;-77
2021/03/30 08:11:57;;;;;;;15.40;7.55;;;;;;;14.76;41.29;102430.45;113704;1209;64377;-76
2021/03/30 08:14:28;;;;;;;12.60;7.20;;;;;;;14.86;40.98;102436.52;113216;1209;64403;-78
2021/03/30 08:17:14;;;;;;;17.23;8.00;;;;;;;14.93;40.23;102437.53;113315;1209;64471;-78
2021/03/30 08:19:59;;;;;;;22.20;8.80;;;;;;;15.01;40.98;102429.55;113394;1209;64381;-78
2021/03/30 08:22:26;;;;;;;18.48;7.63;;;;;;;15.09;41.13;102432.25;113257;1209;64394;-78
2021/03/30 08:24:55;;;;;;;13.70;7.23;;;;;;;15.15;40.89;102440.61;113294;1209;64454;-77
2021/03/30 08:27:31;;;;;;;21.27;8.73;;;;;;;15.22;40.36;102436.31;112929;1209;64377;-76
2021/03/30 08:30:36;;;;;;;15.80;8.07;;;;;;;15.28;40.95;102436.48;112970;1209;65614;-76
2021/03/30 08:33:05;;;;;;;;;;;;;;;15.39;40.54;102431.84;113272;1216;64406;-78
2021/03/30 08:35:37;;;;;;;14.37;7.80;;;;;;;15.46;40.49;102440.86;113221;1209;64438;-78
2021/03/30 08:38:05;;;;;;;15.03;6.43;;;;;;;15.53;41.09;102441.87;113356;1209;64515;-77
2021/03/30 08:40:34;;;;;;;13.75;7.45;;;;;;;15.59;40.64;102440.38;113305;1209;64388;-77
2021/03/30 08:43:14;;;;;;;15.90;7.27;;;;;;;15.67;40.50;102437.72;113018;1209;64377;-77
2021/03/30 08:46:04;;;;;;;16.90;7.37;;;;;;;15.76;40.94;102444.77;113111;1209;64349;-77
2021/03/30 08:48:40;;;;;;;15.10;7.85;;;;;;;15.92;41.06;102445.77;113413;1209;64352;-79
2021/03/30 08:51:13;;;;;;;14.47;7.17;;;;;;;16.08;40.09;102445.77;113105;1209;64521;-76
2021/03/30 08:53:39;;;;;;;15.57;6.60;;;;;;;16.20;39.22;102451.63;113223;1209;64512;-77
2021/03/30 08:56:10;;;;;;;11.00;4.80;;;;;;;16.26;39.55;102456.31;113262;1209;64403;-76
2021/03/30 08:58:48;;;;;;;14.60;6.95;;;;;;;16.36;38.99;102456.94;113103;1209;64277;-77
2021/03/30 09:01:15;;;;;;;15.40;7.37;;;;;;;16.45;39.29;102455.11;112907;1209;64516;-77
2021/03/30 09:03:43;;;;;;;16.20;8.23;;;;;;;16.48;39.23;102452.08;112957;1209;64326;-77
2021/03/30 09:06:35;;;;;;;13.03;7.00;;;;;;;16.53;38.59;102460.42;113202;1209;64329;-78
2021/03/30 09:09:19;;;;;;;15.40;8.00;;;;;;;16.64;39.09;102462.77;113804;1209;64365;-78
2021/03/30 09:11:47;;;;;;;18.30;7.70;;;;;;;16.73;39.25;102458.21;113485;1209;64378;-76
2021/03/30 09:14:21;;;;;;;14.97;8.70;;;;;;;16.83;38.84;102458.88;113027;1209;64364;-76
2021/03/30 09:16:52;;;;;;;12.33;6.70;;;;;;;16.94;39.19;102456.80;113064;1209;64505;-78
2021/03/30 09:19:34;;;;;;;16.87;7.23;;;;;;;17.07;39.41;102455.25;113092;1209;64407;-79
2021/03/30 09:22:13;;;;;;;16.10;8.13;;;;;;;17.19;39.18;102454.84;113576;1209;64371;-76
2021/03/30 09:24:58;;;;;;;16.97;7.33;;;;;;;17.22;38.80;102457.20;113383;1209;64397;-78
2021/03/30 09:27:30;;;;;;;15.05;7.60;;;;;;;17.32;38.71;102449.77;113216;1209;64389;-78
2021/03/30 09:29:58;;;;;;;17.13;7.73;;;;;;;17.38;37.78;102451.72;113235;1209;64442;-77
2021/03/30 09:32:26;;;;;;;16.50;7.73;;;;;;;17.44;37.92;102455.55;113164;1209;64378;-77
2021/03/30 09:35:00;;;;;;;18.10;6.90;;;;;;;17.52;37.87;102453.65;113212;1209;64308;-79
2021/03/30 09:37:33;;;;;;;13.10;6.50;;;;;;;17.53;38.02;102454.47;113253;1209;64435;-78
2021/03/30 09:40:06;;;;;;;13.15;6.98;;;;;;;17.59;37.98;102452.94;113104;1209;64291;-76
2021/03/30 09:42:45;;;;;;;14.83;5.93;;;;;;;17.70;38.25;102455.20;113212;1209;64618;-78
2021/03/30 09:45:15;;;;;;;16.60;6.57;;;;;;;17.72;37.01;102443.29;113436;1209;65396;-77
2021/03/30 09:47:42;;;;;;;11.90;5.60;;;;;;;17.79;37.86;102448.77;113102;1209;64365;-76
2021/03/30 09:50:10;;;;;;;14.17;7.10;;;;;;;17.85;37.15;102448.08;113353;1209;64790;-77
2021/03/30 09:52:37;;;;;;;13.97;7.07;;;;;;;17.95;37.77;102446.99;113429;1209;64384;-77
2021/03/30 09:55:08;;;;;;;14.80;7.25;;;;;;;18.00;36.99;102442.76;112951;1209;64448;-78
2021/03/30 09:57:35;;;;;;;23.00;9.45;;;;;;;18.10;36.70;102434.42;113325;1209;64378;-77
2021/03/30 10:00:03;;;;;;;11.55;6.50;;;;;;;18.20;37.28;102451.13;113029;1209;64374;-76
2021/03/30 10:02:32;;;;;;;12.87;5.57;;;;;;;18.25;37.61;102443.34;113112;1207;64451;-77
2021/03/30 10:05:19;;;;;;;16.20;7.30;;;;;;;18.33;36.61;102434.37;113301;1209;64359;-78
2021/03/30 10:07:46;;;;;;;17.33;7.97;;;;;;;18.38;36.31;102441.88;114188;1209;63089;-78
2021/03/30 10:10:15;;;;;;;16.50;7.60;;;;;;;18.48;36.94;102445.13;113261;1209;64320;-78
2021/03/30 10:12:54;;;;;;;17.63;7.30;;;;;;;18.53;36.35;102442.70;113457;1209;64416;-78
2021/03/30 10:15:38;;;;;;;13.03;7.37;;;;;;;18.54;36.18;102436.33;112994;1209;64379;-78
2021/03/30 10:18:06;;;;;;;19.00;8.35;;;;;;;18.58;36.35;102437.63;113193;1209;64356;-79
2021/03/30 10:20:38;;;;;;;21.10;8.50;;;;;;;18.69;36.45;102434.47;113279;1209;64489;-79
2021/03/30 10:23:25;;;;;;;16.37;6.87;;;;;;;18.75;36.23;102422.97;113371;1209;64381;-80
2021/03/30 10:25:54;;;;;;;17.20;7.60;;;;;;;18.86;36.45;102426.23;113118;1209;64465;-78
2021/03/30 10:28:26;;;;;;;10.35;4.95;;;;;;;18.91;36.37;102421.12;113185;1209;64378;-79
2021/03/30 10:31:05;;;;;;;17.60;7.20;;;;;;;18.96;35.92;102421.41;113421;1209;64416;-79
2021/03/30 10:33:39;;;;;;;16.10;7.03;;;;;;;19.04;36.54;102426.67;112976;1209;64336;-76
2021/03/30 10:36:13;;;;;;;18.37;8.00;;;;;;;19.13;36.02;102420.16;113278;1209;64361;-78
2021/03/30 10:38:41;;;;;;;12.48;5.35;;;;;;;19.22;35.79;102425.42;113431;1209;64911;-75
2021/03/30 10:41:11;;;;;;;17.20;7.90;;;;;;;19.24;35.27;102420.69;113431;1207;64335;-78
2021/03/30 10:43:38;;;;;;;13.60;7.17;;;;;;;19.33;35.97;102412.28;113168;1209;64368;-76
2021/03/30 10:46:20;;;;;;;16.63;8.07;;;;;;;19.42;35.61;102412.98;112992;1209;64383;-78
2021/03/30 10:49:01;;;;;;;12.30;5.37;;;;;;;19.50;35.92;102418.25;113097;1209;64471;-76
2021/03/30 10:51:31;;;;;;;11.97;4.50;;;;;;;19.52;35.88;102418.89;112997;1209;64339;-78
2021/03/30 10:53:59;;;;;;;16.47;7.60;;;;;;;19.53;35.48;102415.19;113091;1209;64378;-80
2021/03/30 10:56:28;;;;;;;13.95;6.95;;;;;;;19.64;35.60;102410.32;113156;1209;64487;-76
2021/03/30 10:58:55;;;;;;;14.87;6.70;;;;;;;19.75;35.92;102401.74;113104;1209;64371;-77
2021/03/30 11:01:22;;;;;;;14.33;6.53;;;;;;;19.81;35.75;102405.53;113020;1209;64439;-79
2021/03/30 11:03:48;;;;;;;14.67;5.63;;;;;;;19.75;34.75;102399.05;113283;1209;64317;-79
2021/03/30 11:06:15;;;;;;;17.07;6.87;;;;;;;19.83;36.12;102398.91;113328;1209;64355;-78
2021/03/30 11:08:41;;;;;;;13.40;6.57;;;;;;;19.87;35.34;102396.64;113179;1209;64390;-79
2021/03/30 11:11:08;;;;;;;15.45;7.00;;;;;;;19.91;34.70;102385.31;113308;1209;64541;-78
2021/03/30 11:13:36;;;;;;;16.13;7.40;;;;;;;20.06;34.75;102387.91;113186;1209;64904;-79
2021/03/30 11:16:05;;;;;;;11.67;6.33;;;;;;;20.13;34.18;102382.55;113288;1209;64397;-78
2021/03/30 11:18:31;;;;;;;13.10;5.80;;;;;;;20.21;34.32;102392.33;113155;1209;64403;-78
2021/03/30 11:20:58;;;;;;;17.00;7.97;;;;;;;20.27;33.90;102384.27;113026;1209;64561;-77
2021/03/30 11:23:24;;;;;;;13.93;5.07;;;;;;;20.34;34.06;102382.47;112944;1209;64448;-77
2021/03/30 11:25:51;;;;;;;13.73;6.77;;;;;;;20.41;33.12;102387.06;112967;1209;64490;-78
2021/03/30 11:28:18;;;;;;;14.65;7.20;;;;;;;20.42;33.76;102394.11;113138;1209;64400;-78
2021/03/30 11:30:52;;;;;;;12.33;6.80;;;;;;;20.40;34.17;102393.47;113397;1209;64487;-79
2021/03/30 11:33:26;;;;;;;15.07;7.10;;;;;;;20.37;33.04;102389.32;113237;1209;64419;-79
2021/03/30 11:36:10;;;;;;;16.30;8.30;;;;;;;20.44;32.99;102373.18;113338;1209;64422;-77
2021/03/30 11:38:37;;;;;;;14.30;7.43;;;;;;;20.50;33.08;102377.77;112974;1209;65587;-77